Time;durP1;ratioP1;P1;durP2;ratioP2;P2;SDS_P1;SDS_P2;PMS_P1;PMS_P2;Temp;Humidity;BMP_temperature;BMP_pressure;BME280_temperature;BME280_humidity;BME280_pressure;Samples;Min_cycle;Max_cycle;Signal;HPM_P1;HPM_P2
2023/06/21 00:01:15;;;;;;;39.60;35.67;;;20.90;99.90;;;;;;5046763;28;20255;-69
2023/06/21 00:10:28;;;;;;;37.47;33.53;;;20.90;99.90;;;;;;5048949;28;20444;-68
2023/06/21 00:12:53;;;;;;;37.67;34.03;;;20.90;99.90;;;;;;5046026;28;20413;-69
2023/06/21 00:15:20;;;;;;;36.00;32.60;;;20.90;99.90;;;;;;5053334;28;20812;-68
2023/06/21 00:17:46;;;;;;;36.83;33.20;;;20.90;99.90;;;;;;5046078;28;20191;-68
2023/06/21 00:20:12;;;;;;;32.93;29.93;;;20.90;99.90;;;;;;5050651;28;20452;-69
2023/06/21 00:22:39;;;;;;;36.50;32.83;;;20.90;99.90;;;;;;5052646;28;20492;-69
2023/06/21 00:25:05;;;;;;;36.43;32.87;;;20.90;99.90;;;;;;5047744;28;20438;-68
2023/06/21 00:27:31;;;;;;;33.87;30.57;;;20.80;99.90;;;;;;5053221;28;20554;-68
2023/06/21 00:29:57;;;;;;;30.63;27.60;;;20.80;99.90;;;;;;5045478;28;20964;-68
2023/06/21 00:32:22;;;;;;;35.97;32.53;;;20.80;99.90;;;;;;5052805;28;20292;-68
2023/06/21 00:34:48;;;;;;;34.50;31.10;;;20.90;99.90;;;;;;5045158;28;20201;-68
2023/06/21 00:37:14;;;;;;;34.67;31.30;;;20.90;99.90;;;;;;5050815;28;20264;-69
2023/06/21 00:39:40;;;;;;;32.93;29.80;;;20.90;99.90;;;;;;5053174;28;20184;-69
2023/06/21 00:42:06;;;;;;;35.30;31.87;;;20.90;99.90;;;;;;5048448;28;20484;-68
2023/06/21 00:44:32;;;;;;;33.97;30.00;;;20.90;99.90;;;;;;5048334;28;20185;-69
2023/06/21 00:46:57;;;;;;;33.47;30.13;;;20.90;99.90;;;;;;5052026;28;20406;-69
2023/06/21 00:49:23;;;;;;;31.80;28.67;;;20.90;99.90;;;;;;5048636;28;20557;-68
2023/06/21 00:51:53;;;;;;;29.77;26.87;;;20.90;99.90;;;;;;5051237;28;20200;-69
2023/06/21 00:54:20;;;;;;;31.37;28.17;;;20.90;99.90;;;;;;5047843;28;20181;-69
2023/06/21 00:56:46;;;;;;;31.83;28.83;;;20.90;99.90;;;;;;5050129;28;20423;-69
2023/06/21 00:59:12;;;;;;;30.83;27.87;;;20.90;99.90;;;;;;5048061;28;20413;-69
2023/06/21 01:01:38;;;;;;;30.70;27.70;;;21.00;99.90;;;;;;5049299;28;20215;-67
2023/06/21 01:04:05;;;;;;;31.67;28.63;;;21.00;99.90;;;;;;5052113;28;20484;-68
2023/06/21 01:06:45;;;;;;;32.23;28.63;;;21.00;99.90;;;;;;5048424;28;20170;-67
2023/06/21 01:09:29;;;;;;;32.40;29.07;;;21.00;99.90;;;;;;5045209;28;20472;-68
2023/06/21 01:12:30;;;;;;;30.07;26.97;;;21.00;99.90;;;;;;5047090;28;20438;-68
2023/06/21 01:15:15;;;;;;;29.10;26.17;;;21.00;99.90;;;;;;5050042;28;20435;-68
2023/06/21 01:17:43;;;;;;;28.73;26.20;;;21.00;99.90;;;;;;5045557;28;20422;-68
2023/06/21 01:20:18;;;;;;;31.90;26.63;;;21.00;99.90;;;;;;5049054;28;20473;-69
2023/06/21 01:23:18;;;;;;;27.13;24.67;;;21.00;99.90;;;;;;5050906;28;20460;-68
2023/06/21 01:26:06;;;;;;;26.53;24.03;;;21.00;99.90;;;;;;5048239;28;20401;-68
2023/06/21 01:28:43;;;;;;;28.37;25.57;;;21.00;99.90;;;;;;5046880;28;20918;-67
2023/06/21 01:31:15;;;;;;;25.57;23.17;;;21.00;99.90;;;;;;5044974;28;20450;-69
2023/06/21 01:33:41;;;;;;;27.27;24.63;;;21.10;99.90;;;;;;5051789;28;20513;-68
2023/06/21 01:36:10;;;;;;;26.90;24.20;;;21.10;99.90;;;;;;5048442;28;20443;-68
2023/06/21 01:38:36;;;;;;;25.43;23.00;;;21.10;99.90;;;;;;5050821;28;20454;-68
2023/06/21 01:41:02;;;;;;;27.97;25.17;;;21.10;99.90;;;;;;5051456;28;20493;-68
2023/06/21 01:43:30;;;;;;;26.10;23.53;;;21.20;99.90;;;;;;5046283;28;20426;-69
2023/06/21 01:45:58;;;;;;;25.20;22.63;;;21.20;99.90;;;;;;5047638;28;20235;-69
2023/06/21 01:48:24;;;;;;;27.00;24.40;;;21.20;99.90;;;;;;5051741;28;20457;-68
2023/06/21 01:50:52;;;;;;;26.43;23.90;;;21.20;99.90;;;;;;5045945;28;20437;-68
2023/06/21 01:53:18;;;;;;;24.30;22.10;;;21.20;99.90;;;;;;5052015;28;20178;-68
2023/06/21 01:55:48;;;;;;;25.60;23.13;;;21.20;99.90;;;;;;5045177;28;20413;-68
2023/06/21 01:58:15;;;;;;;25.73;23.33;;;21.30;99.90;;;;;;5049392;28;20547;-68
2023/06/21 02:00:41;;;;;;;25.00;22.50;;;21.30;99.90;;;;;;5044683;28;20945;-68
2023/06/21 02:03:10;;;;;;;23.27;21.20;;;21.30;99.90;;;;;;5048389;28;20415;-68
2023/06/21 02:05:36;;;;;;;25.07;22.70;;;21.30;99.90;;;;;;5051091;28;20405;-69
2023/06/21 02:08:04;;;;;;;23.97;21.63;;;21.30;99.90;;;;;;5046074;28;20841;-70
2023/06/21 02:10:30;;;;;;;23.60;21.50;;;21.30;99.90;;;;;;5051207;28;20411;-69
2023/06/21 02:12:56;;;;;;;24.43;22.03;;;21.40;99.90;;;;;;5043841;28;20420;-69
2023/06/21 02:15:23;;;;;;;23.87;21.47;;;21.40;99.90;;;;;;5051046;28;20897;-69
2023/06/21 02:17:50;;;;;;;25.57;23.20;;;21.40;99.90;;;;;;5043400;28;20457;-69
2023/06/21 02:20:16;;;;;;;27.27;24.70;;;21.40;99.90;;;;;;5048354;28;20981;-69
2023/06/21 02:22:43;;;;;;;24.40;22.10;;;21.40;99.90;;;;;;5049851;28;20528;-69
2023/06/21 02:25:10;;;;;;;23.30;21.10;;;21.40;99.90;;;;;;5046490;28;20409;-69
2023/06/21 02:27:36;;;;;;;25.67;23.17;;;21.40;99.90;;;;;;5049400;28;20448;-68
2023/06/21 02:30:02;;;;;;;23.60;21.33;;;21.40;99.90;;;;;;5043683;28;20453;-69
2023/06/21 02:32:28;;;;;;;23.90;21.80;;;21.30;99.90;;;;;;5049028;28;20205;-68
2023/06/21 02:34:53;;;;;;;25.63;23.23;;;21.30;99.90;;;;;;5050853;28;20407;-68
2023/06/21 02:37:19;;;;;;;24.83;22.53;;;21.20;99.90;;;;;;5049415;28;20576;-68
2023/06/21 02:39:44;;;;;;;27.87;25.17;;;21.20;99.90;;;;;;5045763;28;20182;-70
2023/06/21 02:42:10;;;;;;;30.43;27.17;;;21.10;99.90;;;;;;5049218;28;20217;-68
2023/06/21 02:44:36;;;;;;;28.73;25.93;;;21.10;99.90;;;;;;5045692;28;20542;-70
2023/06/21 02:47:01;;;;;;;29.93;26.70;;;21.00;99.90;;;;;;5048211;28;20187;-68
2023/06/21 02:49:27;;;;;;;29.20;26.40;;;20.90;99.90;;;;;;5050762;28;20189;-69
2023/06/21 02:51:53;;;;;;;29.90;26.83;;;20.80;99.90;;;;;;5046966;28;20193;-68
2023/06/21 02:54:19;;;;;;;33.03;29.67;;;20.80;99.90;;;;;;5050114;28;20532;-68
2023/06/21 02:56:45;;;;;;;33.00;29.80;;;20.80;99.90;;;;;;5046099;28;20434;-68
2023/06/21 02:59:12;;;;;;;33.00;29.80;;;20.70;99.90;;;;;;5048899;28;20170;-68
2023/06/21 03:01:37;;;;;;;33.33;30.10;;;20.70;99.90;;;;;;5045445;28;20223;-68
2023/06/21 03:04:03;;;;;;;29.23;26.43;;;20.70;99.90;;;;;;5047877;28;20980;-68
2023/06/21 03:06:29;;;;;;;27.43;24.83;;;20.70;99.90;;;;;;5050153;28;20163;-68
2023/06/21 03:08:58;;;;;;;35.20;31.63;;;20.70;99.90;;;;;;5046477;28;20195;-69
2023/06/21 03:11:24;;;;;;;32.10;29.03;;;20.70;99.90;;;;;;5048946;28;20826;-69
2023/06/21 03:13:49;;;;;;;30.50;27.60;;;20.70;99.90;;;;;;5045538;28;20526;-69
2023/06/21 03:16:16;;;;;;;31.57;28.53;;;20.70;99.90;;;;;;5048145;28;20178;-68
2023/06/21 03:18:41;;;;;;;35.00;31.27;;;20.70;99.90;;;;;;5050533;28;20693;-69
2023/06/21 03:21:08;;;;;;;35.27;31.87;;;20.70;99.90;;;;;;5046976;28;20509;-69
2023/06/21 03:23:34;;;;;;;35.63;32.00;;;20.70;99.90;;;;;;5049301;28;20182;-69
2023/06/21 03:25:59;;;;;;;34.97;31.60;;;20.70;99.90;;;;;;5042024;28;20818;-69
2023/06/21 03:28:25;;;;;;;35.97;32.17;;;20.70;99.90;;;;;;5048383;28;20165;-69
2023/06/21 03:30:51;;;;;;;34.80;31.30;;;20.70;99.90;;;;;;5045814;28;20225;-68
2023/06/21 03:33:16;;;;;;;33.23;29.97;;;20.60;99.90;;;;;;5051575;28;20268;-69
2023/06/21 03:35:42;;;;;;;32.53;29.23;;;20.60;99.90;;;;;;5053695;28;20578;-69
2023/06/21 03:38:08;;;;;;;35.67;32.20;;;20.60;99.90;;;;;;5044667;28;20178;-69
2023/06/21 03:40:34;;;;;;;37.60;32.00;;;20.60;99.90;;;;;;5050551;28;20201;-68
2023/06/21 03:43:00;;;;;;;37.83;33.90;;;20.70;99.90;;;;;;5046134;28;20402;-69
2023/06/21 03:45:26;;;;;;;37.77;34.07;;;20.60;99.90;;;;;;5050924;28;20416;-69
2023/06/21 03:47:51;;;;;;;39.57;35.40;;;20.60;99.90;;;;;;5053455;28;20170;-69
2023/06/21 03:50:17;;;;;;;38.83;34.63;;;20.60;99.90;;;;;;5050099;28;20669;-68
2023/06/21 03:52:43;;;;;;;40.17;36.00;;;20.70;99.90;;;;;;5052473;28;20197;-70
2023/06/21 03:55:09;;;;;;;36.37;32.67;;;20.70;99.90;;;;;;5049234;28;20572;-69
2023/06/21 03:57:35;;;;;;;35.87;32.43;;;20.70;99.90;;;;;;5051394;28;20414;-69
2023/06/21 04:00:01;;;;;;;38.07;34.37;;;20.70;99.90;;;;;;5048518;28;20169;-70
2023/06/21 04:02:27;;;;;;;41.07;35.90;;;20.70;99.90;;;;;;5051059;28;20205;-70
2023/06/21 04:04:52;;;;;;;35.17;31.70;;;20.70;99.90;;;;;;5052840;28;20958;-69
2023/06/21 04:07:19;;;;;;;36.43;32.77;;;20.80;99.90;;;;;;5049684;28;20186;-69
2023/06/21 04:09:45;;;;;;;38.83;34.90;;;20.90;99.90;;;;;;5050824;28;20211;-69
2023/06/21 04:12:11;;;;;;;39.03;35.07;;;20.80;99.90;;;;;;5049273;28;20436;-69
2023/06/21 04:14:37;;;;;;;37.40;33.80;;;20.90;99.90;;;;;;5041777;28;20471;-69
2023/06/21 04:17:03;;;;;;;41.50;37.23;;;20.90;99.90;;;;;;5047850;28;20412;-71
2023/06/21 04:19:29;;;;;;;42.57;38.07;;;20.90;99.90;;;;;;5050509;28;20228;-69
2023/06/21 04:21:55;;;;;;;38.67;34.50;;;20.90;99.90;;;;;;5052599;28;20896;-69
2023/06/21 04:24:20;;;;;;;39.83;35.77;;;21.00;99.90;;;;;;5049379;28;20259;-69
2023/06/21 04:26:47;;;;;;;39.50;35.47;;;21.00;99.90;;;;;;5051839;28;20315;-69
2023/06/21 04:29:16;;;;;;;43.60;39.20;;;21.10;99.90;;;;;;5048532;28;20536;-69
2023/06/21 04:31:42;;;;;;;37.60;33.90;;;21.20;99.90;;;;;;5069129;22;20477;-69
2023/06/21 04:34:08;;;;;;;37.53;33.57;;;21.20;99.90;;;;;;5031692;28;20417;-71
2023/06/21 04:36:34;;;;;;;40.27;36.20;;;21.30;99.90;;;;;;5032189;28;20927;-70
2023/06/21 04:39:00;;;;;;;38.60;34.70;;;21.40;99.90;;;;;;5032652;28;20459;-70
2023/06/21 04:41:26;;;;;;;40.63;36.53;;;21.30;99.90;;;;;;5031430;28;20463;-70
2023/06/21 04:43:51;;;;;;;39.10;35.37;;;21.40;99.90;;;;;;5030793;28;20169;-71
2023/06/21 04:46:18;;;;;;;38.73;35.10;;;21.40;99.90;;;;;;5031914;28;20169;-71
2023/06/21 04:48:46;;;;;;;41.27;37.27;;;21.50;99.90;;;;;;5031480;28;20207;-71
2023/06/21 04:51:15;;;;;;;42.00;37.73;;;21.50;99.90;;;;;;5031887;28;20926;-70
2023/06/21 04:53:41;;;;;;;38.40;34.47;;;21.40;99.90;;;;;;5031478;28;20425;-68
2023/06/21 04:56:07;;;;;;;41.73;37.53;;;21.50;99.90;;;;;;5031529;28;20768;-71
2023/06/21 04:58:35;;;;;;;39.47;35.47;;;21.70;99.90;;;;;;5030291;28;20502;-70
2023/06/21 05:01:01;;;;;;;41.83;37.57;;;21.80;99.90;;;;;;5030413;28;20199;-71
2023/06/21 05:03:27;;;;;;;41.30;37.17;;;21.90;99.90;;;;;;5031961;28;20437;-71
2023/06/21 05:05:52;;;;;;;39.20;35.30;;;21.90;99.90;;;;;;5031494;28;20509;-71
2023/06/21 05:08:18;;;;;;;43.93;39.30;;;21.90;99.90;;;;;;5031650;28;20175;-71
2023/06/21 05:10:43;;;;;;;42.80;38.70;;;22.00;99.90;;;;;;5031519;28;20204;-71
2023/06/21 05:13:09;;;;;;;42.37;38.07;;;22.10;99.90;;;;;;5031496;28;20196;-71
2023/06/21 05:15:35;;;;;;;39.20;35.37;;;22.20;99.90;;;;;;5031475;28;20272;-70
2023/06/21 05:18:00;;;;;;;37.60;33.90;;;22.20;99.90;;;;;;5031781;28;20200;-70
2023/06/21 05:20:26;;;;;;;38.97;34.70;;;22.20;99.90;;;;;;5031648;28;20203;-71
2023/06/21 05:22:52;;;;;;;35.57;32.00;;;22.30;99.90;;;;;;5031340;28;20250;-70
2023/06/21 05:25:18;;;;;;;36.97;33.03;;;22.30;99.90;;;;;;5031162;28;20167;-70
2023/06/21 05:27:44;;;;;;;36.63;33.20;;;22.50;99.90;;;;;;5031457;28;20409;-70
2023/06/21 05:30:10;;;;;;;36.73;33.00;;;22.70;99.90;;;;;;5031402;28;20493;-70
2023/06/21 05:32:35;;;;;;;35.97;32.40;;;22.90;99.90;;;;;;5031164;28;20218;-71
2023/06/21 05:35:01;;;;;;;34.70;31.30;;;23.20;99.90;;;;;;5031158;28;20175;-70
2023/06/21 05:37:27;;;;;;;33.30;29.87;;;23.50;99.90;;;;;;5031327;28;20615;-71
2023/06/21 05:39:53;;;;;;;31.63;28.00;;;23.80;99.90;;;;;;5031003;28;20217;-72
2023/06/21 05:42:18;;;;;;;30.33;27.57;;;23.80;99.90;;;;;;5030996;28;20285;-71
2023/06/21 05:44:44;;;;;;;29.70;26.87;;;24.10;99.90;;;;;;5031021;28;20317;-71
2023/06/21 05:47:10;;;;;;;29.47;26.67;;;24.50;99.90;;;;;;5030786;28;20637;-71
2023/06/21 05:49:35;;;;;;;27.00;24.50;;;25.00;99.90;;;;;;5030858;28;20194;-73
2023/06/21 05:52:01;;;;;;;30.20;24.23;;;24.30;99.90;;;;;;5030852;28;20647;-72
2023/06/21 05:54:26;;;;;;;25.93;23.57;;;24.70;99.90;;;;;;5030644;28;20621;-72
2023/06/21 05:56:52;;;;;;;25.50;23.10;;;24.90;99.90;;;;;;5030862;28;20175;-71
2023/06/21 05:59:18;;;;;;;30.70;27.90;;;25.20;99.90;;;;;;5030890;28;20255;-71
2023/06/21 06:01:44;;;;;;;29.10;26.30;;;24.60;99.90;;;;;;5030818;28;20465;-70
2023/06/21 06:04:09;;;;;;;29.67;26.87;;;24.70;99.90;;;;;;5031065;28;20185;-72
2023/06/21 06:06:40;;;;;;;30.10;27.20;;;24.70;99.90;;;;;;5031168;28;20215;-72
2023/06/21 06:09:07;;;;;;;29.30;26.53;;;24.60;99.90;;;;;;5031093;28;20248;-71
2023/06/21 06:11:32;;;;;;;30.00;27.03;;;24.30;99.90;;;;;;5030912;28;20426;-71
2023/06/21 06:13:58;;;;;;;29.60;26.90;;;24.10;99.90;;;;;;5030964;28;20419;-72
2023/06/21 06:16:23;;;;;;;30.53;27.60;;;23.90;99.90;;;;;;5030660;28;20186;-72
2023/06/21 06:18:49;;;;;;;29.53;26.83;;;24.20;99.90;;;;;;5030878;28;20177;-71
2023/06/21 06:21:15;;;;;;;26.33;23.83;;;24.30;99.90;;;;;;5030494;28;20198;-71
2023/06/21 06:23:40;;;;;;;28.57;25.87;;;23.70;99.90;;;;;;5030681;28;20173;-72
2023/06/21 06:26:06;;;;;;;30.27;27.47;;;24.30;99.90;;;;;;5030626;28;20179;-72
2023/06/21 06:28:32;;;;;;;29.33;26.33;;;24.80;99.90;;;;;;5030544;28;20209;-70
2023/06/21 06:30:57;;;;;;;24.87;22.43;;;24.50;99.90;;;;;;5030604;28;20183;-70
2023/06/21 06:33:23;;;;;;;25.50;22.90;;;24.90;99.90;;;;;;5030381;28;20707;-70
2023/06/21 06:35:48;;;;;;;24.27;21.70;;;25.80;99.90;;;;;;5030248;28;20210;-71
2023/06/21 06:38:14;;;;;;;25.33;22.93;;;26.20;99.90;;;;;;5030165;28;20213;-70
2023/06/21 06:40:40;;;;;;;24.03;21.93;;;26.00;99.90;;;;;;5030260;28;20210;-71
2023/06/21 06:43:06;;;;;;;24.80;22.50;;;26.10;99.90;;;;;;5030431;28;20192;-71
2023/06/21 06:45:31;;;;;;;23.27;21.07;;;26.40;99.90;;;;;;5030100;28;20226;-70
2023/06/21 06:47:57;;;;;;;23.93;21.70;;;26.80;99.90;;;;;;5030112;28;20164;-69
2023/06/21 06:50:23;;;;;;;22.77;20.57;;;27.10;99.90;;;;;;5030980;28;20518;-71
2023/06/21 06:52:49;;;;;;;21.30;19.50;;;27.90;99.90;;;;;;5030197;28;20465;-72
2023/06/21 06:55:14;;;;;;;21.50;19.57;;;28.00;99.90;;;;;;5030206;28;20234;-72
2023/06/21 06:57:40;;;;;;;22.73;20.63;;;28.50;99.90;;;;;;5036372;28;20175;-71
2023/06/21 07:00:12;;;;;;;23.30;21.30;;;28.40;99.90;;;;;;5040250;28;20259;-72
2023/06/21 07:02:38;;;;;;;21.80;19.87;;;27.90;99.90;;;;;;5027294;28;20552;-71
2023/06/21 07:05:04;;;;;;;21.93;20.13;;;28.10;99.90;;;;;;5030462;28;20410;-72
2023/06/21 07:07:29;;;;;;;21.83;20.03;;;28.20;99.90;;;;;;5034127;28;20187;-72
2023/06/21 07:09:55;;;;;;;21.70;19.80;;;28.10;99.90;;;;;;5034945;28;20764;-73
2023/06/21 07:12:21;;;;;;;21.00;19.13;;;27.60;99.90;;;;;;5034780;28;20249;-71
2023/06/21 07:14:46;;;;;;;20.00;18.37;;;26.50;99.90;;;;;;5034307;28;20233;-71
2023/06/21 07:17:12;;;;;;;19.73;18.03;;;27.20;99.90;;;;;;5034140;28;20618;-72
2023/06/21 07:19:38;;;;;;;19.57;18.00;;;28.20;99.90;;;;;;5034305;28;20233;-72
2023/06/21 07:22:04;;;;;;;20.73;19.00;;;28.70;99.90;;;;;;5033955;28;20215;-72
2023/06/21 07:24:30;;;;;;;20.00;18.40;;;29.40;99.90;;;;;;5033925;28;20936;-72
2023/06/21 07:26:55;;;;;;;19.83;18.27;;;28.80;99.90;;;;;;5033877;28;20414;-72
2023/06/21 07:29:21;;;;;;;16.13;14.83;;;28.60;99.90;;;;;;5033695;28;20634;-71
2023/06/21 07:31:48;;;;;;;16.60;15.13;;;27.30;99.90;;;;;;5033413;28;20217;-70
2023/06/21 07:34:13;;;;;;;14.70;13.53;;;27.40;99.90;;;;;;5033468;28;20183;-72
2023/06/21 07:36:40;;;;;;;16.30;15.00;;;28.00;99.90;;;;;;5033365;28;20525;-70
2023/06/21 07:39:05;;;;;;;16.53;15.03;;;27.30;99.90;;;;;;5033392;28;20215;-71
2023/06/21 07:41:31;;;;;;;16.67;15.10;;;28.00;99.90;;;;;;5033146;28;20886;-71
2023/06/21 07:43:57;;;;;;;15.40;14.10;;;29.20;99.90;;;;;;5033156;28;20254;-69
2023/06/21 07:46:22;;;;;;;14.57;13.07;;;29.00;99.90;;;;;;5032108;28;20179;-71
2023/06/21 07:48:48;;;;;;;15.10;13.80;;;29.90;99.90;;;;;;5033102;28;20203;-72
2023/06/21 07:51:13;;;;;;;13.80;12.70;;;29.90;99.90;;;;;;5033199;28;20179;-70
2023/06/21 07:53:39;;;;;;;12.70;11.77;;;29.40;99.90;;;;;;5033011;28;20245;-72
2023/06/21 07:56:04;;;;;;;15.60;14.13;;;30.20;99.90;;;;;;5033373;28;20214;-71
2023/06/21 07:58:31;;;;;;;14.00;12.60;;;29.90;99.90;;;;;;5031986;28;20254;-71
2023/06/21 08:00:56;;;;;;;14.93;13.67;;;29.50;99.90;;;;;;5033045;28;20206;-71
2023/06/21 08:03:22;;;;;;;15.90;13.77;;;29.40;99.90;;;;;;5032651;28;20924;-70
2023/06/21 08:05:48;;;;;;;13.47;12.47;;;28.60;99.90;;;;;;5032890;28;20255;-72
2023/06/21 08:08:17;;;;;;;13.83;12.43;;;28.10;99.90;;;;;;5033036;28;20183;-72
2023/06/21 08:10:43;;;;;;;13.80;12.60;;;29.40;99.90;;;;;;5032739;28;20187;-72
2023/06/21 08:13:08;;;;;;;12.80;11.70;;;28.90;99.90;;;;;;5032818;28;20441;-71
2023/06/21 08:15:34;;;;;;;11.57;10.67;;;30.10;99.90;;;;;;5032754;28;20908;-71
2023/06/21 08:17:59;;;;;;;12.13;11.00;;;31.40;99.90;;;;;;5024370;28;20623;-70
2023/06/21 08:20:25;;;;;;;11.40;10.50;;;30.30;99.90;;;;;;5032353;28;20207;-71
2023/06/21 08:22:51;;;;;;;11.20;10.30;;;31.10;99.90;;;;;;5032549;28;20519;-71
2023/06/21 08:25:16;;;;;;;12.47;11.47;;;30.90;99.90;;;;;;5032424;28;20172;-71
2023/06/21 08:27:42;;;;;;;11.50;10.67;;;30.50;99.90;;;;;;5032485;28;20550;-72
2023/06/21 08:30:08;;;;;;;12.50;11.30;;;29.90;99.90;;;;;;5032574;28;20164;-72
2023/06/21 08:32:34;;;;;;;12.70;11.67;;;31.00;99.90;;;;;;5032073;28;20446;-71
2023/06/21 08:35:00;;;;;;;11.47;10.57;;;29.90;99.90;;;;;;5032293;28;20981;-72
2023/06/21 08:37:25;;;;;;;10.60;9.70;;;30.70;99.90;;;;;;5032389;28;20176;-70
2023/06/21 08:39:52;;;;;;;11.67;10.57;;;29.70;99.90;;;;;;5031867;28;20606;-71
2023/06/21 08:42:19;;;;;;;11.83;10.93;;;30.40;99.90;;;;;;5032138;28;20680;-71
2023/06/21 08:44:46;;;;;;;12.73;11.43;;;31.00;99.90;;;;;;5031875;28;20908;-72
2023/06/21 08:47:14;;;;;;;12.30;11.37;;;32.00;99.90;;;;;;5031897;28;20418;-72
2023/06/21 08:49:43;;;;;;;11.57;10.67;;;31.80;99.90;;;;;;5032251;28;20422;-72
2023/06/21 08:52:16;;;;;;;12.33;11.23;;;31.70;99.90;;;;;;5032160;28;20533;-72
2023/06/21 08:54:48;;;;;;;11.30;10.50;;;30.80;99.90;;;;;;5032200;28;20428;-70
2023/06/21 08:57:21;;;;;;;11.20;10.40;;;30.00;99.90;;;;;;5031674;28;20464;-70
2023/06/21 08:59:54;;;;;;;11.07;10.27;;;29.80;99.90;;;;;;5031852;28;20880;-71
2023/06/21 09:02:48;;;;;;;12.70;11.60;;;30.00;99.90;;;;;;5031969;28;20472;-71
2023/06/21 09:05:33;;;;;;;11.47;10.57;;;31.00;99.90;;;;;;5025476;28;20406;-70
2023/06/21 09:08:00;;;;;;;9.70;8.93;;;30.80;99.90;;;;;;5031490;28;20402;-71
2023/06/21 09:10:28;;;;;;;10.50;9.60;;;32.20;99.90;;;;;;5031630;28;20422;-72
2023/06/21 09:12:56;;;;;;;10.40;9.60;;;31.50;99.90;;;;;;5031576;28;20445;-70
2023/06/21 09:15:23;;;;;;;10.80;9.53;;;31.50;99.90;;;;;;5031636;28;20414;-72
2023/06/21 09:17:49;;;;;;;9.63;8.90;;;31.20;99.90;;;;;;5031697;28;20410;-72
2023/06/21 09:20:16;;;;;;;11.27;10.27;;;30.50;99.90;;;;;;5032656;28;20410;-72
2023/06/21 09:22:44;;;;;;;10.07;9.17;;;29.90;99.90;;;;;;5032423;28;20507;-72
2023/06/21 09:25:10;;;;;;;9.17;8.37;;;30.00;99.90;;;;;;5032107;28;20410;-72
2023/06/21 09:27:35;;;;;;;8.87;8.17;;;30.40;99.90;;;;;;5031646;28;20410;-70
2023/06/21 09:30:01;;;;;;;8.80;8.10;;;30.70;99.90;;;;;;5031002;28;20577;-72
2023/06/21 09:32:27;;;;;;;8.67;8.00;;;30.40;99.90;;;;;;5031315;28;20594;-72
2023/06/21 09:34:53;;;;;;;9.90;9.10;;;30.40;99.90;;;;;;5029644;28;20176;-72
2023/06/21 09:37:35;;;;;;;8.17;7.47;;;30.30;99.90;;;;;;5030867;28;20414;-72
2023/06/21 09:40:03;;;;;;;8.00;7.30;;;31.30;99.90;;;;;;5024974;28;20171;-71
2023/06/21 09:42:28;;;;;;;8.00;7.40;;;31.00;99.90;;;;;;5030936;28;20422;-70
2023/06/21 09:44:55;;;;;;;8.50;7.80;;;30.60;99.90;;;;;;5030638;28;20402;-72
2023/06/21 09:47:28;;;;;;;9.47;8.77;;;30.40;99.90;;;;;;5030915;28;20182;-71
2023/06/21 09:49:54;;;;;;;8.40;7.80;;;30.10;99.90;;;;;;5030508;28;20489;-71
2023/06/21 09:52:22;;;;;;;9.27;8.57;;;30.30;99.90;;;;;;5030787;28;20509;-70
2023/06/21 09:54:47;;;;;;;7.80;7.20;;;30.20;99.90;;;;;;5030536;28;20179;-70
2023/06/21 09:57:13;;;;;;;9.53;8.67;;;30.40;99.90;;;;;;5030294;28;20398;-69
2023/06/21 09:59:40;;;;;;;8.53;7.83;;;30.60;99.90;;;;;;5030684;28;20179;-71
2023/06/21 10:02:10;;;;;;;9.03;8.17;;;30.40;99.90;;;;;;5030252;28;20276;-69
2023/06/21 10:04:41;;;;;;;9.17;8.20;;;29.90;99.90;;;;;;5030903;28;20409;-72
2023/06/21 10:07:08;;;;;;;7.67;7.07;;;29.70;99.90;;;;;;5030745;28;20406;-70
2023/06/21 10:09:37;;;;;;;8.60;7.80;;;30.10;99.90;;;;;;5030799;28;20402;-71
2023/06/21 10:12:04;;;;;;;9.00;8.30;;;30.20;99.90;;;;;;5026897;28;20437;-72
2023/06/21 10:14:30;;;;;;;8.07;7.37;;;29.80;99.90;;;;;;5030528;28;20421;-71
2023/06/21 10:16:57;;;;;;;7.50;6.90;;;30.00;99.90;;;;;;5030004;28;20445;-71
2023/06/21 10:19:29;;;;;;;9.43;7.83;;;30.50;99.90;;;;;;5031063;28;20422;-72
2023/06/21 10:22:08;;;;;;;8.50;7.80;;;29.40;99.90;;;;;;5030071;28;20458;-71
2023/06/21 10:24:39;;;;;;;8.23;7.63;;;29.20;99.90;;;;;;5026666;28;20413;-71
2023/06/21 10:27:06;;;;;;;8.30;7.60;;;29.00;99.90;;;;;;5039335;28;20417;-71
2023/06/21 10:29:33;;;;;;;8.37;7.57;;;29.20;99.90;;;;;;5026213;28;20421;-71
2023/06/21 10:32:05;;;;;;;8.60;7.90;;;29.10;99.90;;;;;;5029841;28;20783;-71
2023/06/21 10:34:49;;;;;;;10.53;8.20;;;28.70;99.90;;;;;;5062340;22;20486;-71
2023/06/21 10:37:27;;;;;;;8.20;7.50;;;29.10;99.90;;;;;;5045048;28;20847;-72
2023/06/21 10:39:54;;;;;;;8.87;7.97;;;28.90;99.90;;;;;;5031031;28;20408;-71
2023/06/21 10:42:22;;;;;;;9.50;7.80;;;29.00;99.90;;;;;;5031298;28;20461;-71
2023/06/21 10:44:51;;;;;;;8.40;7.70;;;28.60;99.90;;;;;;5032012;28;20425;-71
2023/06/21 10:47:19;;;;;;;8.37;7.60;;;28.30;99.90;;;;;;5029437;28;20493;-71
2023/06/21 10:49:46;;;;;;;8.17;7.50;;;28.40;99.90;;;;;;5030024;28;20994;-71
2023/06/21 10:52:13;;;;;;;8.60;7.80;;;28.60;99.90;;;;;;5026637;28;20418;-71
2023/06/21 10:54:39;;;;;;;7.30;6.80;;;29.20;99.90;;;;;;5028711;28;20845;-71
2023/06/21 10:57:05;;;;;;;8.47;7.67;;;29.50;99.90;;;;;;5027673;28;20437;-71
2023/06/21 10:59:32;;;;;;;7.73;7.00;;;29.30;99.90;;;;;;5024338;28;20411;-72
2023/06/21 11:01:58;;;;;;;7.00;6.40;;;29.40;99.90;;;;;;5035308;28;20540;-71
2023/06/21 11:04:23;;;;;;;8.00;7.40;;;28.90;99.90;;;;;;5031133;28;20859;-71
2023/06/21 11:06:59;;;;;;;7.77;7.07;;;29.30;99.90;;;;;;5034806;28;20168;-71
2023/06/21 11:09:25;;;;;;;7.63;6.60;;;29.80;99.90;;;;;;5031636;28;20206;-72
2023/06/21 11:11:52;;;;;;;8.10;7.40;;;29.90;99.90;;;;;;5034293;28;20433;-72
2023/06/21 11:14:31;;;;;;;6.37;5.83;;;29.90;99.90;;;;;;5033456;28;20620;-72
2023/06/21 11:17:15;;;;;;;7.80;7.10;;;30.20;99.90;;;;;;5033644;28;20414;-71
2023/06/21 11:19:43;;;;;;;6.63;6.03;;;30.50;99.90;;;;;;5024308;28;20423;-71
2023/06/21 11:22:22;;;;;;;8.00;7.07;;;30.50;99.90;;;;;;5028657;28;20856;-72
2023/06/21 11:24:58;;;;;;;8.30;7.50;;;29.30;99.90;;;;;;5029106;28;20422;-71
2023/06/21 11:27:25;;;;;;;6.97;6.37;;;29.30;99.90;;;;;;5027372;28;20428;-71
2023/06/21 11:29:59;;;;;;;6.70;6.20;;;29.70;99.90;;;;;;5028608;28;20421;-71
2023/06/21 11:32:28;;;;;;;6.93;6.43;;;29.80;99.90;;;;;;5026112;28;20414;-71
2023/06/21 11:34:57;;;;;;;6.90;6.30;;;29.90;99.90;;;;;;5030435;28;20460;-71
2023/06/21 11:37:44;;;;;;;6.10;5.60;;;29.20;99.90;;;;;;5031431;28;20458;-71
2023/06/21 11:40:15;;;;;;;7.50;6.70;;;28.30;99.90;;;;;;5028857;28;20421;-72
2023/06/21 11:42:48;;;;;;;9.77;6.50;;;28.20;99.90;;;;;;5026127;28;20411;-71
2023/06/21 11:45:20;;;;;;;8.40;7.00;;;28.90;99.90;;;;;;5027809;28;20472;-71
2023/06/21 11:48:12;;;;;;;7.17;6.57;;;28.80;99.90;;;;;;5029832;28;20445;-71
2023/06/21 11:50:47;;;;;;;7.60;6.90;;;29.10;99.90;;;;;;5026696;28;20410;-71
2023/06/21 11:53:23;;;;;;;7.57;6.90;;;28.90;99.90;;;;;;5027822;28;20417;-71
2023/06/21 11:56:00;;;;;;;6.60;6.10;;;29.10;99.90;;;;;;5027723;28;20429;-72
2023/06/21 11:58:26;;;;;;;7.40;6.80;;;29.00;99.90;;;;;;5030193;28;20409;-72
2023/06/21 12:00:53;;;;;;;6.67;5.97;;;28.90;99.90;;;;;;5031795;28;20450;-71
2023/06/21 12:03:26;;;;;;;6.77;6.10;;;28.80;99.90;;;;;;5032394;28;20417;-70
2023/06/21 12:05:56;;;;;;;6.30;5.70;;;28.60;99.90;;;;;;5030661;28;20800;-70
2023/06/21 12:08:29;;;;;;;6.70;6.20;;;28.50;99.90;;;;;;5029863;28;20444;-71
2023/06/21 12:11:00;;;;;;;6.73;6.17;;;28.80;99.90;;;;;;5030207;28;20484;-71
2023/06/21 12:13:30;;;;;;;6.67;6.17;;;29.00;99.90;;;;;;5028482;28;20415;-71
2023/06/21 12:15:57;;;;;;;4.97;4.67;;;29.70;99.90;;;;;;5033683;28;20434;-71
2023/06/21 12:18:26;;;;;;;6.27;5.63;;;29.00;99.90;;;;;;5030623;28;20941;-72
2023/06/21 12:20:55;;;;;;;6.67;5.33;;;29.10;99.90;;;;;;5028411;28;20457;-71
2023/06/21 12:23:22;;;;;;;10.60;5.87;;;29.70;99.90;;;;;;5023843;28;20403;-71
2023/06/21 12:25:52;;;;;;;6.43;5.93;;;29.50;99.90;;;;;;5032318;28;20480;-71
2023/06/21 12:28:20;;;;;;;7.60;4.80;;;29.80;99.90;;;;;;5034088;28;20418;-71
2023/06/21 12:30:55;;;;;;;6.20;5.70;;;29.60;99.90;;;;;;5032658;28;20513;-72
2023/06/21 12:33:40;;;;;;;6.37;5.87;;;29.30;99.90;;;;;;5028230;28;20888;-70
2023/06/21 12:36:20;;;;;;;6.23;5.73;;;29.20;99.90;;;;;;5031157;28;20460;-70
2023/06/21 12:38:59;;;;;;;8.80;6.47;;;29.50;99.90;;;;;;5026971;28;20414;-70
2023/06/21 12:41:29;;;;;;;6.80;6.17;;;29.50;99.90;;;;;;5028813;28;20849;-71
2023/06/21 12:44:05;;;;;;;7.60;6.90;;;29.10;99.90;;;;;;5029781;28;20753;-70